sensor_id;sensor_type;location;lat;lon;timestamp;temperature;humidity
18662;DHT22;61528;49.456;11.098;2022-10-26T00:02:24;9.90;99.90
18662;DHT22;61528;49.456;11.098;2022-10-26T00:04:50;9.80;99.90
18662;DHT22;61528;49.456;11.098;2022-10-26T00:07:16;9.70;99.90
18662;DHT22;61528;49.456;11.098;2022-10-26T00:09:41;9.60;99.90
18662;DHT22;61528;49.456;11.098;2022-10-26T00:12:08;9.60;99.90
18662;DHT22;61528;49.456;11.098;2022-10-26T00:29:11;9.50;99.90
18662;DHT22;61528;49.456;11.098;2022-10-26T00:31:38;9.60;99.90
18662;DHT22;61528;49.456;11.098;2022-10-26T00:34:04;9.60;99.90
18662;DHT22;61528;49.456;11.098;2022-10-26T00:36:30;9.60;99.90
18662;DHT22;61528;49.456;11.098;2022-10-26T00:39:00;9.70;99.90
18662;DHT22;61528;49.456;11.098;2022-10-26T00:41:28;9.70;99.90
18662;DHT22;61528;49.456;11.098;2022-10-26T00:43:54;9.70;99.90
18662;DHT22;61528;49.456;11.098;2022-10-26T00:46:21;9.70;99.90
18662;DHT22;61528;49.456;11.098;2022-10-26T00:48:52;9.70;99.90
18662;DHT22;61528;49.456;11.098;2022-10-26T00:51:49;9.70;99.90
18662;DHT22;61528;49.456;11.098;2022-10-26T00:54:17;9.70;99.90
18662;DHT22;61528;49.456;11.098;2022-10-26T00:56:45;9.70;99.90
18662;DHT22;61528;49.456;11.098;2022-10-26T00:59:13;9.70;99.90
18662;DHT22;61528;49.456;11.098;2022-10-26T01:04:07;9.70;99.90
18662;DHT22;61528;49.456;11.098;2022-10-26T01:06:33;9.70;99.90
18662;DHT22;61528;49.456;11.098;2022-10-26T01:09:01;9.70;99.90
18662;DHT22;61528;49.456;11.098;2022-10-26T01:11:27;9.60;99.90
18662;DHT22;61528;49.456;11.098;2022-10-26T01:13:53;9.60;99.90
18662;DHT22;61528;49.456;11.098;2022-10-26T01:21:57;9.60;99.90
18662;DHT22;61528;49.456;11.098;2022-10-26T01:24:45;9.70;99.90
18662;DHT22;61528;49.456;11.098;2022-10-26T01:27:30;9.70;99.90
18662;DHT22;61528;49.456;11.098;2022-10-26T01:40:51;9.60;99.90
18662;DHT22;61528;49.456;11.098;2022-10-26T01:43:19;9.60;99.90
18662;DHT22;61528;49.456;11.098;2022-10-26T01:45:47;9.60;99.90
18662;DHT22;61528;49.456;11.098;2022-10-26T01:50:45;9.70;99.90
18662;DHT22;61528;49.456;11.098;2022-10-26T02:04:01;9.70;99.90
18662;DHT22;61528;49.456;11.098;2022-10-26T02:09:40;9.70;99.90
18662;DHT22;61528;49.456;11.098;2022-10-26T02:12:21;9.80;99.90
18662;DHT22;61528;49.456;11.098;2022-10-26T02:15:24;9.70;99.90
18662;DHT22;61528;49.456;11.098;2022-10-26T02:20:33;9.70;99.90
18662;DHT22;61528;49.456;11.098;2022-10-26T02:23:03;9.70;99.90
18662;DHT22;61528;49.456;11.098;2022-10-26T02:25:33;9.80;99.90
18662;DHT22;61528;49.456;11.098;2022-10-26T04:21:00;10.50;99.90
18662;DHT22;61528;49.456;11.098;2022-10-26T04:23:26;10.40;99.90
18662;DHT22;61528;49.456;11.098;2022-10-26T04:25:52;10.40;99.90
18662;DHT22;61528;49.456;11.098;2022-10-26T04:28:18;10.50;99.90
18662;DHT22;61528;49.456;11.098;2022-10-26T04:30:43;10.40;99.90
18662;DHT22;61528;49.456;11.098;2022-10-26T04:33:09;10.40;99.90
18662;DHT22;61528;49.456;11.098;2022-10-26T04:35:35;10.40;99.90
18662;DHT22;61528;49.456;11.098;2022-10-26T04:38:03;10.50;99.90
18662;DHT22;61528;49.456;11.098;2022-10-26T04:40:31;10.50;99.90
18662;DHT22;61528;49.456;11.098;2022-10-26T04:42:58;10.40;99.90
18662;DHT22;61528;49.456;11.098;2022-10-26T04:45:24;10.50;99.90
18662;DHT22;61528;49.456;11.098;2022-10-26T04:48:06;10.50;99.90
18662;DHT22;61528;49.456;11.098;2022-10-26T04:50:33;10.60;99.90
18662;DHT22;61528;49.456;11.098;2022-10-26T04:52:59;10.50;99.90
18662;DHT22;61528;49.456;11.098;2022-10-26T04:55:25;10.50;99.90
18662;DHT22;61528;49.456;11.098;2022-10-26T04:57:51;10.50;99.90
18662;DHT22;61528;49.456;11.098;2022-10-26T05:00:17;10.50;99.90
18662;DHT22;61528;49.456;11.098;2022-10-26T05:02:43;10.50;99.90
18662;DHT22;61528;49.456;11.098;2022-10-26T05:05:09;10.50;99.90
18662;DHT22;61528;49.456;11.098;2022-10-26T05:07:34;10.50;99.90
18662;DHT22;61528;49.456;11.098;2022-10-26T05:10:00;10.50;99.90
18662;DHT22;61528;49.456;11.098;2022-10-26T05:12:26;10.50;99.90
18662;DHT22;61528;49.456;11.098;2022-10-26T05:14:52;10.50;99.90
18662;DHT22;61528;49.456;11.098;2022-10-26T05:17:18;10.50;99.90
18662;DHT22;61528;49.456;11.098;2022-10-26T05:22:17;10.50;99.90
18662;DHT22;61528;49.456;11.098;2022-10-26T05:24:43;10.60;99.90
18662;DHT22;61528;49.456;11.098;2022-10-26T05:27:08;10.60;99.90
18662;DHT22;61528;49.456;11.098;2022-10-26T05:29:34;10.60;99.90
18662;DHT22;61528;49.456;11.098;2022-10-26T05:32:00;10.50;99.90
18662;DHT22;61528;49.456;11.098;2022-10-26T05:34:26;10.60;99.90
18662;DHT22;61528;49.456;11.098;2022-10-26T05:36:52;10.60;99.90
18662;DHT22;61528;49.456;11.098;2022-10-26T05:39:19;10.60;99.90
18662;DHT22;61528;49.456;11.098;2022-10-26T05:41:45;10.60;99.90
18662;DHT22;61528;49.456;11.098;2022-10-26T05:44:11;10.60;99.90
18662;DHT22;61528;49.456;11.098;2022-10-26T05:49:03;10.70;99.90
18662;DHT22;61528;49.456;11.098;2022-10-26T05:53:55;10.70;99.90
18662;DHT22;61528;49.456;11.098;2022-10-26T21:33:30;13.70;99.90
18662;DHT22;61528;49.456;11.098;2022-10-26T21:35:57;13.50;99.90
18662;DHT22;61528;49.456;11.098;2022-10-26T21:38:25;13.70;99.90
18662;DHT22;61528;49.456;11.098;2022-10-26T21:40:50;13.60;99.90
18662;DHT22;61528;49.456;11.098;2022-10-26T21:43:25;13.40;99.90
18662;DHT22;61528;49.456;11.098;2022-10-26T21:45:55;13.40;99.90
18662;DHT22;61528;49.456;11.098;2022-10-26T21:48:23;13.40;99.90
18662;DHT22;61528;49.456;11.098;2022-10-26T21:50:48;13.30;99.90
